createdAt,value
2023-04-11T00:00:14.039Z,12.20
2023-04-11T00:02:41.358Z,12.20
2023-04-11T00:05:09.553Z,12.20
2023-04-11T00:07:37.075Z,12.20
2023-04-11T00:10:04.924Z,12.20
2023-04-11T00:12:32.171Z,12.20
2023-04-11T00:14:59.449Z,12.20
2023-04-11T00:17:31.799Z,12.20
2023-04-11T00:20:02.116Z,12.20
2023-04-11T00:22:30.821Z,12.20
2023-04-11T00:24:58.086Z,12.20
2023-04-11T00:27:25.402Z,12.10
2023-04-11T00:29:55.183Z,12.10
2023-04-11T00:32:22.483Z,12.00
2023-04-11T00:34:49.903Z,12.00
2023-04-11T00:37:18.097Z,11.90
2023-04-11T00:39:45.619Z,11.90
2023-04-11T00:42:13.064Z,11.80
2023-04-11T00:44:40.472Z,11.80
2023-04-11T00:47:08.160Z,11.70
2023-04-11T00:49:36.368Z,11.70
2023-04-11T00:52:06.328Z,11.60
2023-04-11T00:54:33.977Z,11.70
2023-04-11T00:57:07.656Z,11.60
2023-04-11T00:59:35.121Z,11.60
2023-04-11T01:02:02.755Z,11.60
2023-04-11T01:04:30.196Z,11.60
2023-04-11T01:07:07.238Z,11.50
2023-04-11T01:09:36.515Z,11.50
2023-04-11T01:12:05.670Z,11.50
2023-04-11T01:14:33.276Z,11.40
2023-04-11T01:17:04.909Z,11.40
2023-04-11T01:19:32.779Z,11.40
2023-04-11T01:22:02.066Z,11.30
2023-04-11T01:24:29.664Z,11.30
2023-04-11T01:26:57.533Z,11.30
2023-04-11T01:29:25.376Z,11.20
2023-04-11T01:31:52.502Z,11.20
2023-04-11T01:34:21.215Z,11.10
2023-04-11T01:36:48.759Z,11.10
2023-04-11T01:39:16.333Z,11.00
2023-04-11T01:41:44.347Z,10.90
2023-04-11T01:44:11.661Z,11.00
2023-04-11T01:46:39.390Z,11.00
2023-04-11T01:49:07.222Z,11.00
2023-04-11T01:51:35.556Z,11.00
2023-04-11T01:54:03.231Z,11.00
2023-04-11T01:56:30.815Z,10.90
2023-04-11T01:58:59.569Z,10.90
2023-04-11T02:01:27.023Z,10.90
2023-04-11T02:03:54.506Z,10.90
2023-04-11T02:06:21.971Z,10.80
2023-04-11T02:08:49.586Z,10.80
2023-04-11T02:11:16.859Z,10.80
2023-04-11T02:13:44.499Z,10.90
2023-04-11T02:16:15.608Z,10.80
2023-04-11T02:18:44.296Z,10.90
2023-04-11T02:21:11.905Z,10.80
2023-04-11T02:23:39.189Z,10.80
2023-04-11T02:26:06.581Z,10.80
2023-04-11T02:28:34.232Z,10.80
2023-04-11T02:31:02.418Z,10.80
2023-04-11T02:33:29.882Z,10.80
2023-04-11T02:35:57.297Z,10.80
2023-04-11T02:38:24.734Z,10.80
2023-04-11T02:40:51.934Z,10.80
2023-04-11T02:43:19.423Z,10.70
2023-04-11T02:45:47.547Z,10.80
2023-04-11T02:48:15.140Z,10.70
2023-04-11T02:50:42.705Z,10.70
2023-04-11T02:53:10.569Z,10.70
2023-04-11T02:55:37.831Z,10.70
2023-04-11T02:58:05.033Z,10.70
2023-04-11T03:00:32.881Z,10.70
2023-04-11T03:03:00.310Z,10.70
2023-04-11T03:05:27.455Z,10.70
2023-04-11T03:07:54.708Z,10.70
2023-04-11T03:10:21.906Z,10.70
2023-04-11T03:12:49.022Z,10.70
2023-04-11T03:15:17.995Z,10.70
2023-04-11T03:17:45.246Z,10.70
2023-04-11T03:20:14.127Z,10.70
2023-04-11T03:22:41.238Z,10.70
2023-04-11T03:25:09.293Z,10.70
2023-04-11T03:27:36.548Z,10.70
2023-04-11T03:30:04.357Z,10.70
2023-04-11T03:32:31.898Z,10.70
2023-04-11T03:35:01.253Z,10.70
2023-04-11T03:37:28.674Z,10.70
2023-04-11T03:39:55.937Z,10.70
2023-04-11T03:42:23.232Z,10.70
2023-04-11T03:44:50.384Z,10.70
2023-04-11T03:47:17.593Z,10.70
2023-04-11T03:49:44.813Z,10.70
2023-04-11T03:52:15.386Z,10.60
2023-04-11T03:54:42.635Z,10.60
2023-04-11T03:57:10.764Z,10.60
2023-04-11T03:59:38.276Z,10.60
2023-04-11T04:02:05.841Z,10.50
2023-04-11T04:04:33.892Z,10.40
2023-04-11T04:07:01.928Z,10.30
2023-04-11T04:09:29.497Z,10.20
2023-04-11T04:11:57.766Z,10.20
2023-04-11T04:14:24.978Z,10.10
2023-04-11T04:16:52.258Z,10.10
2023-04-11T04:19:19.853Z,10.00
2023-04-11T04:21:47.059Z,9.90
2023-04-11T04:24:14.554Z,9.90
2023-04-11T04:26:41.854Z,9.90
2023-04-11T04:29:10.697Z,9.90
2023-04-11T04:31:38.540Z,9.90
2023-04-11T04:34:10.605Z,9.80
2023-04-11T04:36:49.282Z,9.80
2023-04-11T04:39:17.885Z,9.80
2023-04-11T04:41:49.627Z,9.80
2023-04-11T04:44:17.231Z,9.70
2023-04-11T04:46:44.986Z,9.70
2023-04-11T04:49:12.472Z,9.70
2023-04-11T04:51:40.998Z,9.60
2023-04-11T04:54:08.430Z,9.60
2023-04-11T04:56:39.613Z,9.60
2023-04-11T04:59:07.947Z,9.60
2023-04-11T05:01:47.942Z,9.50
2023-04-11T05:04:15.610Z,9.50
2023-04-11T05:06:43.175Z,9.40
2023-04-11T05:09:10.440Z,9.50
2023-04-11T05:11:37.608Z,9.40
2023-04-11T05:14:05.028Z,9.40
2023-04-11T05:16:32.290Z,9.40
2023-04-11T05:18:59.495Z,9.30
2023-04-11T05:21:30.389Z,9.30
2023-04-11T05:23:57.765Z,9.30
2023-04-11T05:26:25.120Z,9.30
2023-04-11T05:28:52.337Z,9.30
2023-04-11T05:31:19.754Z,9.30
2023-04-11T05:33:47.005Z,9.30
2023-04-11T05:36:14.790Z,9.30
2023-04-11T05:38:43.026Z,9.30
2023-04-11T05:41:11.938Z,9.30
2023-04-11T05:43:39.418Z,9.30
2023-04-11T05:46:08.267Z,9.30
2023-04-11T05:48:36.617Z,9.30
2023-04-11T05:51:04.890Z,9.30
2023-04-11T05:53:32.575Z,9.30
2023-04-11T05:56:01.476Z,9.30
2023-04-11T05:58:30.330Z,9.30
2023-04-11T06:01:00.204Z,9.30
2023-04-11T06:03:27.835Z,9.40
2023-04-11T06:05:55.410Z,9.30
2023-04-11T06:08:23.231Z,9.40
2023-04-11T06:10:50.284Z,9.30
2023-04-11T06:13:17.520Z,9.40
2023-04-11T06:15:44.929Z,9.40
2023-04-11T06:18:13.518Z,9.40
2023-04-11T06:20:40.914Z,9.50
2023-04-11T06:23:08.328Z,9.50
2023-04-11T06:25:35.632Z,9.50
2023-04-11T06:28:02.931Z,9.60
2023-04-11T06:30:30.541Z,9.70
2023-04-11T06:32:58.523Z,9.70
2023-04-11T06:35:26.087Z,9.70
2023-04-11T06:37:53.481Z,9.80
2023-04-11T06:40:20.806Z,9.80
2023-04-11T06:42:48.496Z,9.80
2023-04-11T06:45:16.661Z,9.90
2023-04-11T06:47:43.932Z,10.00
2023-04-11T06:50:11.782Z,10.10
2023-04-11T06:52:39.272Z,10.10
2023-04-11T06:55:07.450Z,10.20
2023-04-11T06:57:35.466Z,10.20
2023-04-11T07:00:02.727Z,10.20
2023-04-11T07:02:30.277Z,10.20
2023-04-11T07:04:57.838Z,10.20
2023-04-11T07:07:25.262Z,10.20
2023-04-11T07:09:52.637Z,10.20
2023-04-11T07:12:19.861Z,10.20
2023-04-11T07:14:47.133Z,10.20
2023-04-11T07:17:16.509Z,10.20
2023-04-11T07:19:43.866Z,10.20
2023-04-11T07:22:12.647Z,10.20
2023-04-11T07:24:39.945Z,10.20
2023-04-11T07:27:07.227Z,10.30
2023-04-11T07:29:34.631Z,10.30
2023-04-11T07:32:02.031Z,10.30
2023-04-11T07:34:29.517Z,10.30
2023-04-11T07:44:27.203Z,10.20
2023-04-11T07:47:21.914Z,10.10
2023-04-11T07:49:50.514Z,10.10
2023-04-11T07:52:31.859Z,10.00
2023-04-11T07:55:05.924Z,10.00
2023-04-11T07:57:42.135Z,9.90
2023-04-11T08:00:19.379Z,9.90
2023-04-11T08:02:53.268Z,9.90
2023-04-11T08:05:41.115Z,9.90
2023-04-11T08:08:18.268Z,9.90
2023-04-11T08:10:52.380Z,9.90
2023-04-11T08:13:26.001Z,9.90
2023-04-11T08:15:59.855Z,9.90
2023-04-11T08:18:26.901Z,9.90
2023-04-11T08:21:00.899Z,9.90
2023-04-11T08:23:29.382Z,9.90
2023-04-11T08:26:03.840Z,9.90
2023-04-11T08:28:31.022Z,9.90
2023-04-11T08:31:04.869Z,9.90
2023-04-11T08:33:38.796Z,9.80
2023-04-11T08:36:10.309Z,9.80
2023-04-11T08:38:44.896Z,9.80
2023-04-11T08:41:12.950Z,9.80
2023-04-11T08:43:47.072Z,9.80
2023-04-11T08:46:14.587Z,9.80
2023-04-11T08:48:47.845Z,9.90
2023-04-11T08:51:22.549Z,9.90
2023-04-11T08:53:57.001Z,10.10
2023-04-11T08:56:30.953Z,10.10
2023-04-11T08:58:58.446Z,10.10
2023-04-11T09:01:33.957Z,10.10
2023-04-11T09:04:12.994Z,10.10
2023-04-11T09:07:00.774Z,10.00
2023-04-11T09:09:39.888Z,10.00
2023-04-11T09:12:07.247Z,10.00
2023-04-11T09:14:41.221Z,9.90
2023-04-11T09:17:23.990Z,9.90
2023-04-11T09:19:51.103Z,9.90
2023-04-11T09:22:25.229Z,10.00
2023-04-11T09:25:04.796Z,10.00
2023-04-11T09:27:38.977Z,10.10
2023-04-11T09:30:24.031Z,10.20
2023-04-11T09:33:02.192Z,10.20
2023-04-11T09:35:36.150Z,10.30
2023-04-11T09:38:15.816Z,10.40
2023-04-11T09:40:44.133Z,10.40
2023-04-11T09:43:19.944Z,10.50
2023-04-11T09:45:53.999Z,10.50
2023-04-11T09:48:39.496Z,10.50
2023-04-11T09:51:17.941Z,10.60
2023-04-11T09:53:59.125Z,10.60
2023-04-11T09:56:27.825Z,10.70
2023-04-11T09:58:57.536Z,10.70
2023-04-11T10:01:32.313Z,10.80
2023-04-11T10:04:01.358Z,10.80
2023-04-11T10:06:41.262Z,10.90
2023-04-11T10:09:17.899Z,11.00
2023-04-11T10:11:46.270Z,11.10
2023-04-11T10:14:44.904Z,11.20
2023-04-11T10:17:22.678Z,11.30
2023-04-11T10:20:03.044Z,11.40
2023-04-11T10:22:52.138Z,11.40
2023-04-11T10:25:31.035Z,11.40
2023-04-11T10:28:04.934Z,11.50
2023-04-11T10:30:48.002Z,11.40
2023-04-11T10:33:23.925Z,11.20
2023-04-11T10:36:16.417Z,11.10
2023-04-11T10:38:50.963Z,11.00
2023-04-11T10:41:34.925Z,10.90
2023-04-11T10:44:15.939Z,10.80
2023-04-11T10:47:02.867Z,10.60
2023-04-11T10:49:35.652Z,10.60
2023-04-11T10:52:27.952Z,10.50
2023-04-11T10:54:55.297Z,10.50
2023-04-11T10:57:29.932Z,10.50
2023-04-11T11:02:38.183Z,10.70
2023-04-11T11:05:23.046Z,10.80
2023-04-11T11:08:00.938Z,10.90
2023-04-11T11:10:45.087Z,11.00
2023-04-11T11:13:15.977Z,11.00
2023-04-11T11:15:57.253Z,10.90
2023-04-11T11:18:24.574Z,10.80
2023-04-11T11:21:03.266Z,10.80
2023-04-11T11:23:31.183Z,10.60
2023-04-11T11:26:06.975Z,10.60
2023-04-11T11:28:53.117Z,10.50
2023-04-11T11:31:20.601Z,10.50
2023-04-11T11:34:04.760Z,10.50
2023-04-11T11:37:01.110Z,10.50
2023-04-11T11:39:36.957Z,10.40
2023-04-11T11:42:11.036Z,10.40
2023-04-11T11:44:38.189Z,10.40
2023-04-11T11:47:22.549Z,10.40
2023-04-11T11:49:56.140Z,10.40
2023-04-11T11:52:44.018Z,10.40
2023-04-11T11:55:23.020Z,10.40
2023-04-11T11:57:57.004Z,10.30
2023-04-11T12:00:26.197Z,10.40
2023-04-11T12:03:01.215Z,10.40
2023-04-11T12:05:33.305Z,10.50
2023-04-11T12:08:13.282Z,10.50
2023-04-11T12:10:46.723Z,10.50
2023-04-11T12:13:31.935Z,10.60
2023-04-11T12:16:08.274Z,10.60
2023-04-11T12:18:52.035Z,10.70
2023-04-11T12:21:19.381Z,10.70
2023-04-11T12:23:53.146Z,10.70
2023-04-11T12:26:21.501Z,10.70
2023-04-11T12:28:50.400Z,10.70
2023-04-11T12:31:25.250Z,10.70
2023-04-11T12:33:52.509Z,10.70
2023-04-11T12:36:40.114Z,10.80
2023-04-11T12:39:07.433Z,10.80
2023-04-11T12:41:41.202Z,10.90
2023-04-11T12:44:15.880Z,10.90
2023-04-11T12:46:43.446Z,11.00
2023-04-11T12:49:17.124Z,11.10
2023-04-11T12:51:51.416Z,11.20
2023-04-11T12:54:36.127Z,11.30
2023-04-11T12:57:11.160Z,11.30
2023-04-11T12:59:45.044Z,11.40
2023-04-11T13:02:12.341Z,11.40
2023-04-11T13:04:46.249Z,11.40
2023-04-11T13:07:14.044Z,11.40
2023-04-11T13:09:48.084Z,11.50
2023-04-11T13:12:15.304Z,11.50
2023-04-11T13:14:49.313Z,11.50
2023-04-11T13:17:18.736Z,11.60
2023-04-11T13:19:52.005Z,11.60
2023-04-11T13:22:26.025Z,11.70
2023-04-11T13:25:00.160Z,11.70
2023-04-11T13:27:34.164Z,11.80
2023-04-11T13:30:01.807Z,12.00
2023-04-11T13:32:35.376Z,12.10
2023-04-11T13:35:04.277Z,12.10
2023-04-11T13:37:44.407Z,12.10
2023-04-11T13:40:20.139Z,12.10
2023-04-11T13:42:47.528Z,12.00
2023-04-11T13:45:22.729Z,11.90
2023-04-11T13:47:49.848Z,11.80
2023-04-11T13:50:23.990Z,11.60
2023-04-11T13:52:51.138Z,11.50
2023-04-11T13:55:25.901Z,11.40
2023-04-11T13:57:53.205Z,11.30
2023-04-11T14:00:29.355Z,11.20
2023-04-11T14:02:57.622Z,11.00
2023-04-11T14:05:34.083Z,10.90
2023-04-11T14:08:01.434Z,10.80
2023-04-11T14:10:35.033Z,10.80
2023-04-11T14:15:38.453Z,10.80
2023-04-11T14:18:12.084Z,10.90
2023-04-11T14:20:46.039Z,11.00
2023-04-11T14:23:23.054Z,11.00
2023-04-11T14:25:51.078Z,11.10
2023-04-11T14:28:26.461Z,11.10
2023-04-11T14:30:54.753Z,11.10
2023-04-11T14:33:29.129Z,11.20
2023-04-11T14:36:03.141Z,11.20
2023-04-11T14:38:37.771Z,11.30
2023-04-11T14:41:12.399Z,11.30
2023-04-11T14:43:39.814Z,11.20
2023-04-11T14:46:14.098Z,11.20
2023-04-11T14:48:41.482Z,11.20
2023-04-11T14:51:15.324Z,11.10
2023-04-11T14:53:50.251Z,11.10
2023-04-11T14:56:17.579Z,11.10
2023-04-11T14:58:51.182Z,11.00
2023-04-11T15:01:26.449Z,11.00
2023-04-11T15:03:54.573Z,11.00
2023-04-11T15:06:28.096Z,11.00
2023-04-11T15:09:02.263Z,11.10
2023-04-11T15:11:36.159Z,11.10
2023-04-11T15:14:10.220Z,11.10
2023-04-11T15:16:37.540Z,11.20
2023-04-11T15:19:11.217Z,11.20
2023-04-11T15:21:39.722Z,11.30
2023-04-11T15:24:14.260Z,11.30
2023-04-11T15:26:45.022Z,11.30
2023-04-11T15:29:22.110Z,11.40
2023-04-11T15:31:56.168Z,11.40
2023-04-11T15:34:23.643Z,11.40
2023-04-11T15:36:57.324Z,11.40
2023-04-11T15:39:31.060Z,11.40
2023-04-11T15:42:05.074Z,11.30
2023-04-11T15:44:53.325Z,11.30
2023-04-11T15:47:30.551Z,11.20
2023-04-11T15:50:06.159Z,11.10
2023-04-11T15:52:33.418Z,11.10
2023-04-11T15:55:07.169Z,11.00
2023-04-11T15:57:41.141Z,11.00
2023-04-11T16:00:11.958Z,11.00
2023-04-11T16:02:45.248Z,11.00
2023-04-11T16:05:13.443Z,10.90
2023-04-11T16:07:50.174Z,10.90
2023-04-11T16:10:17.331Z,10.80
2023-04-11T16:12:52.162Z,10.80
2023-04-11T16:15:19.607Z,10.70
2023-04-11T16:17:53.310Z,10.70
2023-04-11T16:20:27.140Z,10.60
2023-04-11T16:22:54.340Z,10.50
2023-04-11T16:25:28.467Z,10.50
2023-04-11T16:27:55.672Z,10.40
2023-04-11T16:30:29.298Z,10.30
2023-04-11T16:32:56.844Z,10.20
2023-04-11T16:35:31.182Z,10.20
2023-04-11T16:38:11.234Z,10.20
2023-04-11T16:40:38.512Z,10.10
2023-04-11T16:43:12.096Z,10.10
2023-04-11T16:45:40.602Z,10.10
2023-04-11T16:48:16.177Z,10.10
2023-04-11T16:50:50.210Z,10.00
2023-04-11T16:53:18.771Z,10.00
2023-04-11T16:55:52.153Z,10.00
2023-04-11T16:58:19.394Z,10.00
2023-04-11T17:00:56.288Z,9.90
2023-04-11T17:03:30.642Z,9.90
2023-04-11T17:05:59.872Z,9.80
2023-04-11T17:08:33.129Z,9.80
2023-04-11T17:13:47.191Z,9.80
2023-04-11T17:16:21.203Z,9.70
2023-04-11T17:18:55.276Z,9.70
2023-04-11T17:21:29.127Z,9.70
2023-04-11T17:23:56.532Z,9.70
2023-04-11T17:26:30.121Z,9.80
2023-04-11T17:28:57.731Z,9.80
2023-04-11T17:31:35.225Z,9.70
2023-04-11T17:34:02.341Z,9.80
2023-04-11T17:36:37.162Z,9.70
2023-04-11T17:39:11.147Z,9.70
2023-04-11T17:41:45.180Z,9.70
2023-04-11T17:44:13.124Z,9.60
2023-04-11T17:46:47.253Z,9.60
2023-04-11T17:49:14.720Z,9.60
2023-04-11T17:51:58.985Z,9.50
2023-04-11T17:54:33.482Z,9.50
2023-04-11T17:57:08.390Z,9.50
2023-04-11T17:59:42.271Z,9.40
2023-04-11T18:02:11.662Z,9.40
2023-04-11T18:04:45.473Z,9.30
2023-04-11T18:07:20.729Z,9.30
2023-04-11T18:09:54.219Z,9.20
2023-04-11T18:12:29.479Z,9.20
2023-04-11T18:15:03.222Z,9.10
2023-04-11T18:17:30.678Z,9.10
2023-04-11T18:20:05.226Z,9.00
2023-04-11T18:22:39.281Z,9.00
2023-04-11T18:25:14.338Z,9.00
2023-04-11T18:27:48.295Z,8.90
2023-04-11T18:30:23.316Z,8.90
2023-04-11T18:32:54.069Z,8.80
2023-04-11T18:35:32.353Z,8.80
2023-04-11T18:38:00.400Z,8.70
2023-04-11T18:40:34.459Z,8.60
2023-04-11T18:43:01.837Z,8.60
2023-04-11T18:45:36.210Z,8.60
2023-04-11T18:48:10.572Z,8.50
2023-04-11T18:50:45.490Z,8.50
2023-04-11T18:53:19.281Z,8.50
2023-04-11T18:55:47.488Z,8.50
2023-04-11T18:58:24.215Z,8.50
2023-04-11T19:00:53.251Z,8.40
2023-04-11T19:03:30.394Z,8.40
2023-04-11T19:06:04.915Z,8.40
2023-04-11T19:08:32.078Z,8.30
2023-04-11T19:11:06.546Z,8.30
2023-04-11T19:13:40.564Z,8.30
2023-04-11T19:16:08.476Z,8.20
2023-04-11T19:18:42.421Z,8.20
2023-04-11T19:21:16.491Z,8.10
2023-04-11T19:23:50.172Z,8.10
2023-04-11T19:26:18.580Z,8.00
2023-04-11T19:28:53.318Z,8.00
2023-04-11T19:31:23.310Z,7.90
2023-04-11T19:33:58.600Z,7.90
2023-04-11T19:36:26.732Z,7.90
2023-04-11T19:38:54.081Z,7.80
2023-04-11T19:41:28.451Z,7.80
2023-04-11T19:43:56.433Z,7.80
2023-04-11T19:46:33.405Z,7.70
2023-04-11T19:49:07.327Z,7.70
2023-04-11T19:51:34.625Z,7.70
2023-04-11T19:54:08.197Z,7.60
2023-04-11T19:56:42.271Z,7.70
2023-04-11T19:59:09.257Z,7.70
2023-04-11T20:01:36.554Z,7.70
2023-04-11T20:04:10.486Z,7.60
2023-04-11T20:06:37.914Z,7.60
2023-04-11T20:09:04.976Z,7.60
2023-04-11T20:11:43.509Z,7.50
2023-04-11T20:14:24.250Z,7.50
2023-04-11T20:16:58.269Z,7.50
2023-04-11T20:19:32.809Z,7.50
2023-04-11T20:22:07.422Z,7.40
2023-04-11T20:24:34.899Z,7.40
2023-04-11T20:27:08.256Z,7.40
2023-04-11T20:29:57.342Z,7.40
2023-04-11T20:32:37.373Z,7.30
2023-04-11T20:35:05.451Z,7.20
2023-04-11T20:37:41.417Z,7.20
2023-04-11T20:40:17.362Z,7.10
2023-04-11T20:42:47.903Z,7.10
2023-04-11T20:45:16.954Z,7.00
2023-04-11T20:47:53.394Z,7.00
2023-04-11T20:50:28.411Z,6.90
2023-04-11T20:53:02.354Z,6.90
2023-04-11T20:55:30.317Z,6.80
2023-04-11T20:58:05.626Z,6.80
2023-04-11T21:00:32.956Z,6.70
2023-04-11T21:03:06.540Z,6.70
2023-04-11T21:05:33.929Z,6.60
2023-04-11T21:08:08.699Z,6.50
2023-04-11T21:10:36.183Z,6.50
2023-04-11T21:13:10.399Z,6.40
2023-04-11T21:15:37.589Z,6.40
2023-04-11T21:18:13.674Z,6.30
2023-04-11T21:20:41.167Z,6.30
2023-04-11T21:23:15.360Z,6.30
2023-04-11T21:25:49.355Z,6.20
2023-04-11T21:28:16.756Z,6.20
2023-04-11T21:30:57.408Z,6.10
2023-04-11T21:33:37.459Z,6.10
2023-04-11T21:36:04.919Z,6.10
2023-04-11T21:38:39.535Z,6.10
2023-04-11T21:41:07.214Z,6.00
2023-04-11T21:43:41.444Z,5.90
2023-04-11T21:46:15.529Z,5.80
2023-04-11T21:48:43.501Z,5.70
2023-04-11T21:51:17.397Z,5.60
2023-04-11T21:53:44.681Z,5.50
2023-04-11T21:56:18.488Z,5.50
2023-04-11T21:58:45.585Z,5.50
2023-04-11T22:01:21.246Z,5.50
2023-04-11T22:03:57.625Z,5.50
2023-04-11T22:06:26.802Z,5.50
2023-04-11T22:08:53.921Z,5.40
2023-04-11T22:11:27.364Z,5.40
2023-04-11T22:14:01.358Z,5.40
2023-04-11T22:16:31.570Z,5.40
2023-04-11T22:19:05.371Z,5.30
2023-04-11T22:21:39.345Z,5.20
2023-04-11T22:24:09.581Z,5.20
2023-04-11T22:26:53.307Z,5.20
2023-04-11T22:29:28.481Z,5.10
2023-04-11T22:32:02.399Z,5.10
2023-04-11T22:34:43.922Z,5.10
2023-04-11T22:37:11.112Z,5.00
2023-04-11T22:39:44.484Z,5.00
2023-04-11T22:42:11.898Z,4.90
2023-04-11T22:44:45.387Z,4.90
2023-04-11T22:47:16.272Z,4.90
2023-04-11T22:49:51.282Z,4.90
2023-04-11T22:52:24.514Z,4.90
2023-04-11T22:54:58.540Z,4.80
2023-04-11T22:57:25.971Z,4.80
2023-04-11T23:00:00.518Z,4.80
2023-04-11T23:02:31.883Z,4.70
2023-04-11T23:05:05.338Z,4.70
2023-04-11T23:07:39.606Z,4.70
2023-04-11T23:10:10.830Z,4.60
2023-04-11T23:12:44.595Z,4.70
2023-04-11T23:15:13.097Z,4.60
2023-04-11T23:17:47.569Z,4.60
2023-04-11T23:20:21.336Z,4.60
2023-04-11T23:22:48.636Z,4.50
2023-04-11T23:25:22.491Z,4.50
2023-04-11T23:27:56.475Z,4.50
2023-04-11T23:33:15.453Z,4.40
2023-04-11T23:35:49.503Z,4.40
2023-04-11T23:38:17.368Z,4.40
2023-04-11T23:40:52.415Z,4.40
2023-04-11T23:43:19.645Z,4.30
2023-04-11T23:45:53.452Z,4.30
2023-04-11T23:48:28.398Z,4.30
2023-04-11T23:50:55.544Z,4.20
2023-04-11T23:53:31.406Z,4.20
2023-04-11T23:56:05.453Z,4.20
2023-04-11T23:58:40.414Z,4.20
